Time;durP1;ratioP1;P1;durP2;ratioP2;P2;SDS_P1;SDS_P2;PMS_P1;PMS_P2;Temp;Humidity;BMP_temperature;BMP_pressure;BME280_temperature;BME280_humidity;BME280_pressure;Samples;Min_cycle;Max_cycle;Signal;HPM_P1;HPM_P2
2021/03/26 04:46:21;;;;;;;39.42;24.47;;;;;;;3.29;58.74;94942.59;833720;71;33129;-75
2021/03/26 05:01:17;;;;;;;42.93;25.43;;;;;;;4.88;55.24;94958.91;834621;71;29860;-74
2021/03/26 05:16:12;;;;;;;41.20;25.32;;;;;;;6.37;51.77;94976.92;828512;71;30277;-75
2021/03/26 05:31:26;;;;;;;37.55;26.12;;;;;;;7.69;49.38;94986.27;827371;71;32806;-74
2021/03/26 05:46:51;;;;;;;30.35;24.55;;;;;;;8.85;46.28;94992.41;826319;71;32726;-75
2021/03/26 06:01:39;;;;;;;38.75;26.00;;;;;;;9.41;44.06;94994.90;827037;71;32675;-77
2021/03/26 06:16:26;;;;;;;40.28;28.35;;;;;;;10.50;42.90;95009.81;821586;71;33165;-76
2021/03/26 06:31:24;;;;;;;36.48;24.80;;;;;;;11.69;39.64;95014.18;827858;71;33203;-77
2021/03/26 06:46:27;;;;;;;38.58;27.90;;;;;;;13.23;36.58;95018.53;833857;71;32750;-74
2021/03/26 07:01:29;;;;;;;26.17;19.82;;;;;;;14.36;34.41;95028.98;833648;71;32660;-75
2021/03/26 07:16:34;;;;;;;22.87;17.50;;;;;;;15.38;32.46;95041.63;833777;71;32583;-75
2021/03/26 07:31:26;;;;;;;17.90;14.07;;;;;;;16.10;30.49;95033.64;828803;71;29736;-77
2021/03/26 09:01:51;;;;;;;14.28;12.78;;;;;;;21.52;28.06;95104.89;834018;71;30369;-77
2021/03/26 10:46:47;;;;;;;18.32;13.15;;;;;;;19.53;26.89;95042.11;782696;75;32905;-78
2021/03/26 11:01:21;;;;;;;14.70;12.03;;;;;;;19.57;25.40;95043.77;826722;71;33613;-75
2021/03/26 11:16:21;;;;;;;12.75;10.90;;;;;;;19.22;26.21;95050.00;820237;71;30878;-76
2021/03/26 11:31:26;;;;;;;13.15;11.65;;;;;;;18.85;26.22;95035.82;827104;71;32748;-78
2021/03/26 11:46:20;;;;;;;16.57;11.50;;;;;;;18.66;26.60;95025.08;834319;71;31033;-77
2021/03/26 12:01:10;;;;;;;13.48;11.48;;;;;;;18.22;27.29;95011.34;833566;71;29069;-79
2021/03/26 12:16:23;;;;;;;12.30;9.83;;;;;;;17.89;26.96;95004.61;833516;71;32164;-76
2021/03/26 12:31:21;;;;;;;13.65;10.70;;;;;;;17.22;27.69;94999.70;827517;71;31832;-79
2021/03/26 12:46:17;;;;;;;10.23;9.10;;;;;;;17.17;27.89;94988.48;813659;70;29334;-77
2021/03/26 13:01:30;;;;;;;12.93;10.90;;;;;;;16.66;28.36;94977.65;827752;71;31106;-78
2021/03/26 13:16:36;;;;;;;10.03;9.03;;;;;;;16.09;28.80;94982.56;833552;71;31858;-76
2021/03/26 13:31:17;;;;;;;10.68;9.58;;;;;;;15.67;29.93;94966.82;835064;71;28708;-78
2021/03/26 13:46:12;;;;;;;10.85;9.40;;;;;;;15.14;30.58;94979.86;827626;71;29437;-77
2021/03/26 14:01:38;;;;;;;10.43;9.23;;;;;;;14.51;30.55;94976.91;825854;71;31572;-77
2021/03/26 14:16:20;;;;;;;13.28;11.00;;;;;;;13.95;32.24;94963.89;834844;71;31849;-78
2021/03/26 14:31:32;;;;;;;11.53;9.58;;;;;;;13.25;33.24;94966.31;833511;71;31782;-77
2021/03/26 14:46:11;;;;;;;10.30;8.65;;;;;;;12.86;33.59;94967.54;827911;71;29270;-77
2021/03/26 15:01:39;;;;;;;10.53;9.35;;;;;;;12.62;34.39;94971.63;828600;71;29209;-77
2021/03/26 15:16:11;;;;;;;9.30;7.92;;;;;;;12.21;34.60;94991.45;827918;71;28787;-79
2021/03/26 15:31:17;;;;;;;10.05;8.90;;;;;;;11.84;35.25;94997.45;833817;71;29735;-78
2021/03/26 15:46:44;;;;;;;11.35;8.93;;;;;;;11.41;35.76;95000.04;833696;71;33055;-76
2021/03/26 16:01:43;;;;;;;10.80;9.30;;;;;;;11.05;36.56;95004.38;823384;71;32762;-76
2021/03/26 16:16:45;;;;;;;14.87;10.55;;;;;;;10.71;37.55;95020.94;827757;71;33231;-76
2021/03/26 16:31:37;;;;;;;15.50;10.65;;;;;;;10.33;38.43;95024.61;834329;71;29814;-77
2021/03/26 16:46:26;;;;;;;18.98;13.80;;;;;;;9.95;39.71;95041.30;828362;71;30333;-78
2021/03/26 17:46:31;;;;;;;33.02;22.05;;;;;;;8.61;43.89;95094.95;835909;71;32707;-82
2021/03/26 18:01:36;;;;;;;34.48;23.18;;;;;;;8.35;45.06;95116.31;829628;71;32546;-85
2021/03/26 18:16:36;;;;;;;43.98;27.52;;;;;;;8.10;45.35;95124.86;795530;74;33154;-86
2021/03/26 19:01:59;;;;;;;194.35;87.88;;;;;;;7.66;45.70;95134.31;811745;72;32887;-84
2021/03/26 19:16:30;;;;;;;43.98;29.18;;;;;;;7.77;45.55;95176.45;828849;71;33120;-85
2021/03/26 20:17:09;;;;;;;;;;;;;;;;;;;;;
2021/03/26 20:31:37;;;;;;;38.13;25.17;;;;;;;7.06;47.89;95194.98;794171;74;30554;-85
2021/03/26 21:46:58;;;;;;;32.15;22.85;;;;;;;6.44;51.34;95201.39;813769;72;32959;-86
2021/03/26 22:31:45;;;;;;;60.15;35.30;;;;;;;5.56;55.50;95215.06;829303;71;31914;-85
2021/03/26 23:01:33;;;;;;;69.95;37.50;;;;;;;5.33;56.98;95213.39;835914;71;30822;-86
2021/03/26 23:31:42;;;;;;;;;;;;;;;;;;;;;
2021/03/26 23:46:18;;;;;;;49.98;29.12;;;;;;;4.88;58.87;95221.50;837902;70;31767;-84
